sensor_id;sensor_type;location;lat;lon;timestamp;pressure;altitude;pressure_sealevel;temperature;humidity
74090;BME280;62448;-26.094;27.994;2022-09-30T00:01:01;84971.60;;;15.19;13.94
74090;BME280;62448;-26.094;27.994;2022-09-30T00:03:26;84969.47;;;15.74;13.77
74090;BME280;62448;-26.094;27.994;2022-09-30T00:06:01;84966.11;;;15.99;13.65
74090;BME280;62448;-26.094;27.994;2022-09-30T00:08:17;84969.07;;;15.73;13.74
74090;BME280;62448;-26.094;27.994;2022-09-30T00:10:42;84968.96;;;15.47;14.28
74090;BME280;62448;-26.094;27.994;2022-09-30T00:13:08;84966.83;;;14.86;14.57
74090;BME280;62448;-26.094;27.994;2022-09-30T00:15:33;84966.40;;;14.11;14.45
74090;BME280;62448;-26.094;27.994;2022-09-30T00:17:58;84966.58;;;14.95;14.21
74090;BME280;62448;-26.094;27.994;2022-09-30T00:20:23;84969.19;;;14.97;14.07
74090;BME280;62448;-26.094;27.994;2022-09-30T00:22:49;84968.73;;;14.85;13.88
74090;BME280;62448;-26.094;27.994;2022-09-30T00:25:14;84968.46;;;15.32;13.79
74090;BME280;62448;-26.094;27.994;2022-09-30T00:27:40;84963.80;;;15.50;13.63
74090;BME280;62448;-26.094;27.994;2022-09-30T00:30:06;84959.06;;;15.61;13.63
74090;BME280;62448;-26.094;27.994;2022-09-30T00:32:30;84956.17;;;15.99;13.47
74090;BME280;62448;-26.094;27.994;2022-09-30T00:34:56;84948.40;;;15.04;13.79
74090;BME280;62448;-26.094;27.994;2022-09-30T00:37:22;84945.86;;;15.69;13.53
74090;BME280;62448;-26.094;27.994;2022-09-30T00:39:47;84946.00;;;15.82;13.53
74090;BME280;62448;-26.094;27.994;2022-09-30T00:42:14;84946.53;;;15.36;13.71
74090;BME280;62448;-26.094;27.994;2022-09-30T00:44:54;84947.14;;;15.61;13.55
74090;BME280;62448;-26.094;27.994;2022-09-30T00:47:03;84943.27;;;15.25;13.68
74090;BME280;62448;-26.094;27.994;2022-09-30T00:49:28;84945.95;;;15.19;13.68
74090;BME280;62448;-26.094;27.994;2022-09-30T00:51:56;84944.63;;;15.17;13.71
74090;BME280;62448;-26.094;27.994;2022-09-30T00:54:23;84945.44;;;15.42;13.54
74090;BME280;62448;-26.094;27.994;2022-09-30T00:56:48;84945.10;;;15.48;13.61
74090;BME280;62448;-26.094;27.994;2022-09-30T00:59:15;84947.13;;;15.57;13.55
74090;BME280;62448;-26.094;27.994;2022-09-30T01:01:39;84948.65;;;14.93;13.73
74090;BME280;62448;-26.094;27.994;2022-09-30T01:04:08;84948.72;;;15.28;13.90
74090;BME280;62448;-26.094;27.994;2022-09-30T01:06:28;84948.72;;;14.77;14.09
74090;BME280;62448;-26.094;27.994;2022-09-30T01:08:53;84952.62;;;14.69;14.30
74090;BME280;62448;-26.094;27.994;2022-09-30T01:11:19;84949.84;;;14.61;14.31
74090;BME280;62448;-26.094;27.994;2022-09-30T01:13:46;84948.85;;;14.13;14.56
74090;BME280;62448;-26.094;27.994;2022-09-30T01:16:22;84948.93;;;14.19;14.29
74090;BME280;62448;-26.094;27.994;2022-09-30T01:18:46;84949.67;;;14.75;13.97
74090;BME280;62448;-26.094;27.994;2022-09-30T01:21:14;84948.70;;;14.69;14.00
74090;BME280;62448;-26.094;27.994;2022-09-30T01:23:48;84952.68;;;14.72;13.78
74090;BME280;62448;-26.094;27.994;2022-09-30T01:26:03;84951.51;;;15.29;13.57
74090;BME280;62448;-26.094;27.994;2022-09-30T01:28:30;84947.31;;;15.22;13.48
74090;BME280;62448;-26.094;27.994;2022-09-30T01:30:53;84948.47;;;15.14;13.65
74090;BME280;62448;-26.094;27.994;2022-09-30T01:33:16;84949.53;;;14.70;13.71
74090;BME280;62448;-26.094;27.994;2022-09-30T01:35:41;84949.62;;;14.66;13.84
74090;BME280;62448;-26.094;27.994;2022-09-30T01:38:05;84950.24;;;15.10;13.67
74090;BME280;62448;-26.094;27.994;2022-09-30T01:40:26;84952.34;;;14.76;13.87
74090;BME280;62448;-26.094;27.994;2022-09-30T01:42:55;84947.80;;;14.87;13.85
74090;BME280;62448;-26.094;27.994;2022-09-30T01:45:17;84943.14;;;14.98;13.86
74090;BME280;62448;-26.094;27.994;2022-09-30T01:47:44;84933.55;;;15.37;13.70
74090;BME280;62448;-26.094;27.994;2022-09-30T01:50:11;84928.21;;;15.27;13.79
74090;BME280;62448;-26.094;27.994;2022-09-30T01:52:36;84923.66;;;15.08;13.76
74090;BME280;62448;-26.094;27.994;2022-09-30T01:55:00;84927.83;;;14.93;13.87
74090;BME280;62448;-26.094;27.994;2022-09-30T01:57:24;84928.87;;;15.00;13.80
74090;BME280;62448;-26.094;27.994;2022-09-30T01:59:50;84935.08;;;15.12;13.87
74090;BME280;62448;-26.094;27.994;2022-09-30T02:02:15;84940.43;;;15.26;14.16
74090;BME280;62448;-26.094;27.994;2022-09-30T02:04:40;84940.81;;;14.93;14.39
74090;BME280;62448;-26.094;27.994;2022-09-30T02:07:16;84938.87;;;14.61;14.61
74090;BME280;62448;-26.094;27.994;2022-09-30T02:09:38;84940.05;;;14.26;14.89
74090;BME280;62448;-26.094;27.994;2022-09-30T02:12:01;84937.11;;;14.12;15.07
74090;BME280;62448;-26.094;27.994;2022-09-30T02:14:30;84936.30;;;14.33;14.93
74090;BME280;62448;-26.094;27.994;2022-09-30T02:16:52;84933.49;;;14.25;14.73
74090;BME280;62448;-26.094;27.994;2022-09-30T02:19:21;84928.21;;;14.41;14.49
74090;BME280;62448;-26.094;27.994;2022-09-30T02:21:45;84924.52;;;14.80;14.38
74090;BME280;62448;-26.094;27.994;2022-09-30T02:24:13;84924.48;;;14.44;14.41
74090;BME280;62448;-26.094;27.994;2022-09-30T02:26:35;84931.21;;;14.87;14.25
74090;BME280;62448;-26.094;27.994;2022-09-30T02:29:04;84938.64;;;15.09;14.22
74090;BME280;62448;-26.094;27.994;2022-09-30T02:31:25;84945.59;;;14.96;14.28
74090;BME280;62448;-26.094;27.994;2022-09-30T02:33:52;84948.80;;;15.10;14.26
74090;BME280;62448;-26.094;27.994;2022-09-30T02:36:21;84949.68;;;14.63;14.25
74090;BME280;62448;-26.094;27.994;2022-09-30T02:38:44;84950.71;;;14.85;14.37
74090;BME280;62448;-26.094;27.994;2022-09-30T02:41:10;84951.52;;;14.90;14.26
74090;BME280;62448;-26.094;27.994;2022-09-30T02:43:32;84953.40;;;14.79;14.36
74090;BME280;62448;-26.094;27.994;2022-09-30T02:46:04;84952.60;;;14.98;14.27
74090;BME280;62448;-26.094;27.994;2022-09-30T02:48:27;84953.62;;;14.83;14.40
74090;BME280;62448;-26.094;27.994;2022-09-30T02:50:50;84955.50;;;14.38;14.58
74090;BME280;62448;-26.094;27.994;2022-09-30T02:53:22;84954.17;;;14.77;14.31
74090;BME280;62448;-26.094;27.994;2022-09-30T02:55:43;84953.87;;;14.47;14.40
74090;BME280;62448;-26.094;27.994;2022-09-30T02:58:08;84952.41;;;14.23;14.46
74090;BME280;62448;-26.094;27.994;2022-09-30T03:00:29;84947.68;;;15.02;14.41
74090;BME280;62448;-26.094;27.994;2022-09-30T03:02:58;84948.19;;;14.57;14.79
74090;BME280;62448;-26.094;27.994;2022-09-30T03:05:19;84952.07;;;13.91;15.07
74090;BME280;62448;-26.094;27.994;2022-09-30T03:07:45;84959.54;;;14.64;15.05
74090;BME280;62448;-26.094;27.994;2022-09-30T03:10:16;84961.95;;;14.35;15.23
74090;BME280;62448;-26.094;27.994;2022-09-30T03:12:45;84968.15;;;14.19;15.33
74090;BME280;62448;-26.094;27.994;2022-09-30T03:15:27;84968.88;;;13.97;15.30
74090;BME280;62448;-26.094;27.994;2022-09-30T03:17:53;84973.91;;;13.82;15.14
74090;BME280;62448;-26.094;27.994;2022-09-30T03:20:22;84977.48;;;14.42;14.84
74090;BME280;62448;-26.094;27.994;2022-09-30T03:22:31;84979.07;;;14.53;14.76
74090;BME280;62448;-26.094;27.994;2022-09-30T03:24:58;84981.74;;;14.51;14.64
74090;BME280;62448;-26.094;27.994;2022-09-30T04:21:51;85046.70;;;6.05;27.91
74090;BME280;62448;-26.094;27.994;2022-09-30T04:22:18;85044.41;;;5.77;26.47
74090;BME280;62448;-26.094;27.994;2022-09-30T04:24:43;85045.94;;;8.69;22.10
74090;BME280;62448;-26.094;27.994;2022-09-30T04:27:08;85044.63;;;10.07;19.69
74090;BME280;62448;-26.094;27.994;2022-09-30T04:29:34;85041.85;;;11.74;18.15
74090;BME280;62448;-26.094;27.994;2022-09-30T04:31:59;85043.99;;;12.61;17.27
74090;BME280;62448;-26.094;27.994;2022-09-30T04:34:24;85040.79;;;12.97;16.77
74090;BME280;62448;-26.094;27.994;2022-09-30T04:36:50;85039.15;;;13.31;16.43
74090;BME280;62448;-26.094;27.994;2022-09-30T04:39:16;85045.15;;;13.45;16.12
74090;BME280;62448;-26.094;27.994;2022-09-30T04:41:42;85047.66;;;13.90;15.94
74090;BME280;62448;-26.094;27.994;2022-09-30T04:44:07;85049.51;;;13.98;15.88
74090;BME280;62448;-26.094;27.994;2022-09-30T04:46:33;85053.83;;;14.03;15.73
74090;BME280;62448;-26.094;27.994;2022-09-30T04:48:58;85056.71;;;13.60;15.92
74090;BME280;62448;-26.094;27.994;2022-09-30T04:51:24;85058.17;;;13.57;15.66
74090;BME280;62448;-26.094;27.994;2022-09-30T04:53:49;85057.56;;;13.73;15.59
74090;BME280;62448;-26.094;27.994;2022-09-30T04:56:15;85059.57;;;13.51;15.68
74090;BME280;62448;-26.094;27.994;2022-09-30T04:58:40;85060.14;;;14.00;15.47
74090;BME280;62448;-26.094;27.994;2022-09-30T05:01:07;85059.17;;;13.37;15.84
74090;BME280;62448;-26.094;27.994;2022-09-30T05:03:32;85058.42;;;12.75;15.28
74090;BME280;62448;-26.094;27.994;2022-09-30T05:05:57;85055.50;;;11.98;15.04
74090;BME280;62448;-26.094;27.994;2022-09-30T05:08:22;85057.60;;;12.14;16.83
74090;BME280;62448;-26.094;27.994;2022-09-30T05:10:53;85058.07;;;12.07;18.61
74090;BME280;62448;-26.094;27.994;2022-09-30T05:13:13;85059.91;;;12.48;18.36
74090;BME280;62448;-26.094;27.994;2022-09-30T05:15:39;85058.67;;;13.09;18.01
74090;BME280;62448;-26.094;27.994;2022-09-30T05:18:04;85058.97;;;12.15;17.29
74090;BME280;62448;-26.094;27.994;2022-09-30T05:20:30;85056.94;;;11.70;16.47
74090;BME280;62448;-26.094;27.994;2022-09-30T05:22:55;85055.31;;;10.94;16.10
74090;BME280;62448;-26.094;27.994;2022-09-30T05:25:21;85055.56;;;12.05;19.10
74090;BME280;62448;-26.094;27.994;2022-09-30T05:27:48;85054.84;;;12.31;19.05
74090;BME280;62448;-26.094;27.994;2022-09-30T05:30:11;85055.64;;;12.68;18.51
74090;BME280;62448;-26.094;27.994;2022-09-30T05:32:37;85058.08;;;13.13;18.12
74090;BME280;62448;-26.094;27.994;2022-09-30T05:35:03;85065.70;;;12.28;17.10
74090;BME280;62448;-26.094;27.994;2022-09-30T05:37:28;85069.79;;;11.66;16.18
74090;BME280;62448;-26.094;27.994;2022-09-30T05:39:54;85066.76;;;11.09;16.65
74090;BME280;62448;-26.094;27.994;2022-09-30T05:42:18;85067.39;;;11.43;19.55
74090;BME280;62448;-26.094;27.994;2022-09-30T05:44:44;85065.42;;;11.92;18.86
74090;BME280;62448;-26.094;27.994;2022-09-30T05:47:09;85064.32;;;12.50;18.44
74090;BME280;62448;-26.094;27.994;2022-09-30T05:49:35;85064.94;;;12.21;17.68
74090;BME280;62448;-26.094;27.994;2022-09-30T05:52:00;85065.59;;;11.98;16.69
74090;BME280;62448;-26.094;27.994;2022-09-30T05:54:26;85068.22;;;11.53;16.17
74090;BME280;62448;-26.094;27.994;2022-09-30T05:56:51;85071.91;;;11.53;18.86
74090;BME280;62448;-26.094;27.994;2022-09-30T05:59:17;85074.44;;;11.98;19.10
74090;BME280;62448;-26.094;27.994;2022-09-30T06:01:42;85071.34;;;12.64;18.60
74090;BME280;62448;-26.094;27.994;2022-09-30T06:04:08;85069.54;;;12.66;18.39
74090;BME280;62448;-26.094;27.994;2022-09-30T06:06:33;85071.54;;;12.09;17.31
74090;BME280;62448;-26.094;27.994;2022-09-30T06:08:59;85073.89;;;11.83;16.72
74090;BME280;62448;-26.094;27.994;2022-09-30T06:11:24;85075.24;;;11.34;18.72
74090;BME280;62448;-26.094;27.994;2022-09-30T06:13:49;85072.55;;;11.98;20.04
74090;BME280;62448;-26.094;27.994;2022-09-30T06:16:14;85077.17;;;12.14;19.62
74090;BME280;62448;-26.094;27.994;2022-09-30T06:18:40;85074.07;;;12.38;19.27
74090;BME280;62448;-26.094;27.994;2022-09-30T06:21:05;85072.80;;;11.45;18.36
74090;BME280;62448;-26.094;27.994;2022-09-30T06:23:31;85070.48;;;10.57;17.45
74090;BME280;62448;-26.094;27.994;2022-09-30T06:25:56;85069.75;;;11.38;17.85
74090;BME280;62448;-26.094;27.994;2022-09-30T06:28:22;85072.40;;;11.60;19.45
74090;BME280;62448;-26.094;27.994;2022-09-30T06:30:47;85073.84;;;12.18;18.89
74090;BME280;62448;-26.094;27.994;2022-09-30T06:33:13;85077.62;;;12.65;18.38
74090;BME280;62448;-26.094;27.994;2022-09-30T06:35:37;85077.97;;;11.79;17.48
74090;BME280;62448;-26.094;27.994;2022-09-30T06:38:03;85078.64;;;11.44;16.78
74090;BME280;62448;-26.094;27.994;2022-09-30T06:40:28;85076.31;;;11.16;17.16
74090;BME280;62448;-26.094;27.994;2022-09-30T06:42:58;85076.26;;;11.87;19.06
74090;BME280;62448;-26.094;27.994;2022-09-30T06:45:18;85074.70;;;12.25;18.50
74090;BME280;62448;-26.094;27.994;2022-09-30T06:47:45;85075.98;;;12.38;18.10
74090;BME280;62448;-26.094;27.994;2022-09-30T06:50:10;85078.25;;;11.89;17.16
74090;BME280;62448;-26.094;27.994;2022-09-30T06:52:35;85074.83;;;11.51;16.48
74090;BME280;62448;-26.094;27.994;2022-09-30T06:55:01;85077.06;;;11.67;18.22
74090;BME280;62448;-26.094;27.994;2022-09-30T06:57:26;85079.72;;;11.87;18.36
74090;BME280;62448;-26.094;27.994;2022-09-30T06:59:52;85079.50;;;11.98;18.08
74090;BME280;62448;-26.094;27.994;2022-09-30T07:02:18;85077.48;;;11.82;17.43
74090;BME280;62448;-26.094;27.994;2022-09-30T07:04:43;85076.30;;;11.57;16.61
74090;BME280;62448;-26.094;27.994;2022-09-30T07:07:08;85074.18;;;11.29;16.36
74090;BME280;62448;-26.094;27.994;2022-09-30T07:09:34;85074.89;;;10.90;19.65
74090;BME280;62448;-26.094;27.994;2022-09-30T07:12:00;85068.92;;;11.82;19.07
74090;BME280;62448;-26.094;27.994;2022-09-30T07:14:25;85069.14;;;11.70;18.85
74090;BME280;62448;-26.094;27.994;2022-09-30T07:16:50;85064.38;;;11.24;18.11
74090;BME280;62448;-26.094;27.994;2022-09-30T07:19:15;85061.21;;;10.58;17.74
74090;BME280;62448;-26.094;27.994;2022-09-30T07:21:41;85060.43;;;10.47;18.38
74090;BME280;62448;-26.094;27.994;2022-09-30T07:24:07;85061.16;;;10.98;19.35
74090;BME280;62448;-26.094;27.994;2022-09-30T07:26:33;85061.36;;;11.82;18.47
74090;BME280;62448;-26.094;27.994;2022-09-30T07:28:57;85064.23;;;11.85;17.47
74090;BME280;62448;-26.094;27.994;2022-09-30T07:31:25;85059.59;;;11.42;17.22
74090;BME280;62448;-26.094;27.994;2022-09-30T07:33:48;85063.44;;;11.03;17.15
74090;BME280;62448;-26.094;27.994;2022-09-30T07:36:14;85067.76;;;11.75;18.74
74090;BME280;62448;-26.094;27.994;2022-09-30T07:38:40;85063.54;;;12.67;18.20
74090;BME280;62448;-26.094;27.994;2022-09-30T07:41:06;85057.05;;;11.50;17.65
74090;BME280;62448;-26.094;27.994;2022-09-30T07:43:31;85055.77;;;11.50;17.13
74090;BME280;62448;-26.094;27.994;2022-09-30T07:45:55;85054.37;;;11.77;17.06
74090;BME280;62448;-26.094;27.994;2022-09-30T07:48:21;85057.48;;;11.71;18.81
74090;BME280;62448;-26.094;27.994;2022-09-30T07:50:47;85050.52;;;12.03;18.41
74090;BME280;62448;-26.094;27.994;2022-09-30T07:53:12;85051.43;;;11.77;17.42
74090;BME280;62448;-26.094;27.994;2022-09-30T07:55:37;85049.51;;;11.66;16.77
74090;BME280;62448;-26.094;27.994;2022-09-30T07:58:02;85048.35;;;11.42;18.42
74090;BME280;62448;-26.094;27.994;2022-09-30T08:00:27;85051.71;;;12.27;18.23
74090;BME280;62448;-26.094;27.994;2022-09-30T08:02:53;85048.98;;;12.20;17.94
74090;BME280;62448;-26.094;27.994;2022-09-30T08:05:19;85042.44;;;11.61;17.59
74090;BME280;62448;-26.094;27.994;2022-09-30T08:07:44;85039.39;;;10.93;17.55
74090;BME280;62448;-26.094;27.994;2022-09-30T08:10:10;85039.70;;;11.20;19.74
74090;BME280;62448;-26.094;27.994;2022-09-30T08:12:36;85037.75;;;12.06;19.03
74090;BME280;62448;-26.094;27.994;2022-09-30T08:15:00;85031.51;;;11.90;18.23
74090;BME280;62448;-26.094;27.994;2022-09-30T08:17:26;85032.34;;;10.91;18.35
74090;BME280;62448;-26.094;27.994;2022-09-30T08:19:52;85031.39;;;10.77;17.95
74090;BME280;62448;-26.094;27.994;2022-09-30T08:22:47;85024.09;;;11.24;19.45
74090;BME280;62448;-26.094;27.994;2022-09-30T08:24:43;85018.11;;;11.65;18.66
74090;BME280;62448;-26.094;27.994;2022-09-30T08:27:08;85014.12;;;11.59;17.82
74090;BME280;62448;-26.094;27.994;2022-09-30T08:29:33;85017.78;;;11.70;17.00
74090;BME280;62448;-26.094;27.994;2022-09-30T08:31:59;85011.08;;;11.09;19.20
74090;BME280;62448;-26.094;27.994;2022-09-30T08:34:24;85013.18;;;12.22;18.32
74090;BME280;62448;-26.094;27.994;2022-09-30T08:36:50;85010.09;;;12.09;17.58
74090;BME280;62448;-26.094;27.994;2022-09-30T08:39:15;85004.28;;;12.10;16.91
74090;BME280;62448;-26.094;27.994;2022-09-30T08:42:59;85001.94;;;12.09;16.78
74090;BME280;62448;-26.094;27.994;2022-09-30T08:44:18;85003.45;;;11.82;18.31
74090;BME280;62448;-26.094;27.994;2022-09-30T08:46:40;84996.92;;;12.33;17.16
74090;BME280;62448;-26.094;27.994;2022-09-30T08:49:02;84994.38;;;11.93;16.12
74090;BME280;62448;-26.094;27.994;2022-09-30T08:51:29;84980.34;;;10.99;15.80
74090;BME280;62448;-26.094;27.994;2022-09-30T08:53:48;84977.86;;;11.17;17.03
74090;BME280;62448;-26.094;27.994;2022-09-30T08:56:20;84975.33;;;11.65;19.27
74090;BME280;62448;-26.094;27.994;2022-09-30T08:58:42;84969.92;;;12.59;18.36
74090;BME280;62448;-26.094;27.994;2022-09-30T09:01:15;84962.23;;;11.85;17.65
74090;BME280;62448;-26.094;27.994;2022-09-30T09:03:30;84954.58;;;11.60;17.31
74090;BME280;62448;-26.094;27.994;2022-09-30T09:06:00;84952.72;;;11.51;19.54
74090;BME280;62448;-26.094;27.994;2022-09-30T09:08:27;84946.16;;;11.98;18.91
74090;BME280;62448;-26.094;27.994;2022-09-30T09:10:49;84933.78;;;11.30;18.39
74090;BME280;62448;-26.094;27.994;2022-09-30T09:13:23;84934.49;;;11.15;18.29
74090;BME280;62448;-26.094;27.994;2022-09-30T09:15:48;84941.36;;;10.91;19.89
74090;BME280;62448;-26.094;27.994;2022-09-30T09:18:15;84941.16;;;11.60;19.22
74090;BME280;62448;-26.094;27.994;2022-09-30T09:20:31;84946.74;;;11.57;18.00
74090;BME280;62448;-26.094;27.994;2022-09-30T09:22:52;84948.95;;;9.92;17.26
74090;BME280;62448;-26.094;27.994;2022-09-30T09:25:22;84948.95;;;11.00;18.11
74090;BME280;62448;-26.094;27.994;2022-09-30T09:27:51;84952.07;;;11.80;18.75
74090;BME280;62448;-26.094;27.994;2022-09-30T09:30:11;84950.13;;;11.99;17.70
74090;BME280;62448;-26.094;27.994;2022-09-30T09:32:35;84950.68;;;11.90;16.75
74090;BME280;62448;-26.094;27.994;2022-09-30T09:35:11;84954.95;;;11.76;16.43
74090;BME280;62448;-26.094;27.994;2022-09-30T09:37:35;84952.24;;;12.02;18.80
74090;BME280;62448;-26.094;27.994;2022-09-30T09:40:02;84946.86;;;12.95;17.41
74090;BME280;62448;-26.094;27.994;2022-09-30T09:42:29;84942.34;;;12.23;16.70
74090;BME280;62448;-26.094;27.994;2022-09-30T09:44:45;84939.43;;;11.64;16.26
74090;BME280;62448;-26.094;27.994;2022-09-30T09:47:10;84938.46;;;12.24;18.73
74090;BME280;62448;-26.094;27.994;2022-09-30T09:49:35;84938.00;;;12.37;17.94
74090;BME280;62448;-26.094;27.994;2022-09-30T09:52:45;84938.86;;;11.95;16.79
74090;BME280;62448;-26.094;27.994;2022-09-30T09:54:27;84941.70;;;11.43;16.57
74090;BME280;62448;-26.094;27.994;2022-09-30T09:56:50;84940.69;;;12.29;18.83
74090;BME280;62448;-26.094;27.994;2022-09-30T09:59:17;84941.13;;;13.37;17.71
74090;BME280;62448;-26.094;27.994;2022-09-30T10:01:42;84938.98;;;13.68;17.48
74090;BME280;62448;-26.094;27.994;2022-09-30T10:04:10;84935.16;;;13.81;17.34
74090;BME280;62448;-26.094;27.994;2022-09-30T10:06:43;84930.02;;;13.68;17.45
74090;BME280;62448;-26.094;27.994;2022-09-30T10:08:58;84921.08;;;13.96;17.47
74090;BME280;62448;-26.094;27.994;2022-09-30T10:11:25;84921.51;;;13.94;17.39
74090;BME280;62448;-26.094;27.994;2022-09-30T10:13:55;84922.52;;;13.97;17.46
74090;BME280;62448;-26.094;27.994;2022-09-30T10:16:32;84918.02;;;14.10;17.24
74090;BME280;62448;-26.094;27.994;2022-09-30T10:18:41;84913.07;;;14.50;17.12
74090;BME280;62448;-26.094;27.994;2022-09-30T10:21:18;84910.26;;;14.29;16.95
74090;BME280;62448;-26.094;27.994;2022-09-30T10:23:33;84907.73;;;14.50;16.75
74090;BME280;62448;-26.094;27.994;2022-09-30T10:26:00;84902.45;;;15.21;16.22
74090;BME280;62448;-26.094;27.994;2022-09-30T10:28:24;84902.84;;;15.18;15.91
74090;BME280;62448;-26.094;27.994;2022-09-30T10:30:52;84900.01;;;15.60;15.69
74090;BME280;62448;-26.094;27.994;2022-09-30T10:33:18;84890.78;;;15.92;15.51
74090;BME280;62448;-26.094;27.994;2022-09-30T10:35:51;84882.69;;;15.86;15.46
74090;BME280;62448;-26.094;27.994;2022-09-30T10:38:04;84881.51;;;16.08;15.30
74090;BME280;62448;-26.094;27.994;2022-09-30T10:40:29;84878.46;;;16.25;15.22
74090;BME280;62448;-26.094;27.994;2022-09-30T10:42:55;84877.15;;;16.63;15.10
74090;BME280;62448;-26.094;27.994;2022-09-30T10:45:23;84869.66;;;16.51;15.06
74090;BME280;62448;-26.094;27.994;2022-09-30T10:47:49;84866.24;;;16.98;14.94
74090;BME280;62448;-26.094;27.994;2022-09-30T10:50:13;84865.58;;;16.91;14.91
74090;BME280;62448;-26.094;27.994;2022-09-30T10:52:45;84867.55;;;16.42;14.87
74090;BME280;62448;-26.094;27.994;2022-09-30T10:55:06;84868.26;;;16.78;14.80
74090;BME280;62448;-26.094;27.994;2022-09-30T10:57:32;84862.86;;;16.67;14.67
74090;BME280;62448;-26.094;27.994;2022-09-30T10:59:58;84859.30;;;16.87;14.81
74090;BME280;62448;-26.094;27.994;2022-09-30T11:02:26;84863.68;;;16.65;14.86
74090;BME280;62448;-26.094;27.994;2022-09-30T11:04:51;84861.91;;;16.17;15.11
74090;BME280;62448;-26.094;27.994;2022-09-30T11:07:18;84858.58;;;15.87;15.02
74090;BME280;62448;-26.094;27.994;2022-09-30T11:09:43;84849.52;;;16.19;15.00
74090;BME280;62448;-26.094;27.994;2022-09-30T11:12:12;84845.78;;;16.13;14.90
74090;BME280;62448;-26.094;27.994;2022-09-30T11:14:37;84844.74;;;16.63;14.77
74090;BME280;62448;-26.094;27.994;2022-09-30T11:17:04;84842.30;;;16.40;14.72
74090;BME280;62448;-26.094;27.994;2022-09-30T11:19:23;84846.86;;;16.50;14.74
74090;BME280;62448;-26.094;27.994;2022-09-30T11:21:51;84841.94;;;16.64;14.61
74090;BME280;62448;-26.094;27.994;2022-09-30T11:24:20;84839.25;;;16.18;14.42
74090;BME280;62448;-26.094;27.994;2022-09-30T11:26:45;84837.96;;;16.82;14.08
74090;BME280;62448;-26.094;27.994;2022-09-30T11:29:13;84840.86;;;17.10;13.89
74090;BME280;62448;-26.094;27.994;2022-09-30T11:31:32;84837.95;;;17.55;13.74
74090;BME280;62448;-26.094;27.994;2022-09-30T11:34:06;84838.14;;;17.24;13.65
74090;BME280;62448;-26.094;27.994;2022-09-30T11:36:26;84839.45;;;17.35;13.60
74090;BME280;62448;-26.094;27.994;2022-09-30T11:38:56;84844.29;;;17.28;13.58
74090;BME280;62448;-26.094;27.994;2022-09-30T11:41:12;84839.39;;;17.73;13.30
74090;BME280;62448;-26.094;27.994;2022-09-30T11:43:41;84839.30;;;17.01;13.46
74090;BME280;62448;-26.094;27.994;2022-09-30T11:47:15;84837.46;;;17.41;13.26
74090;BME280;62448;-26.094;27.994;2022-09-30T11:48:36;84833.94;;;17.02;13.33
74090;BME280;62448;-26.094;27.994;2022-09-30T11:51:02;84831.42;;;17.67;13.13
74090;BME280;62448;-26.094;27.994;2022-09-30T11:53:24;84828.09;;;17.79;13.01
74090;BME280;62448;-26.094;27.994;2022-09-30T11:55:54;84824.45;;;17.54;13.05
74090;BME280;62448;-26.094;27.994;2022-09-30T11:58:08;84823.78;;;17.50;13.14
74090;BME280;62448;-26.094;27.994;2022-09-30T12:00:35;84819.22;;;17.41;13.40
74090;BME280;62448;-26.094;27.994;2022-09-30T12:03:05;84816.37;;;17.52;13.49
74090;BME280;62448;-26.094;27.994;2022-09-30T12:05:25;84818.58;;;17.41;13.55
74090;BME280;62448;-26.094;27.994;2022-09-30T12:07:51;84813.42;;;17.37;13.52
74090;BME280;62448;-26.094;27.994;2022-09-30T12:10:18;84814.32;;;17.37;13.52
74090;BME280;62448;-26.094;27.994;2022-09-30T12:12:40;84814.27;;;17.31;13.50
74090;BME280;62448;-26.094;27.994;2022-09-30T12:15:06;84811.06;;;17.26;13.61
74090;BME280;62448;-26.094;27.994;2022-09-30T12:17:36;84806.56;;;17.08;13.67
74090;BME280;62448;-26.094;27.994;2022-09-30T12:19:58;84805.50;;;17.01;13.38
74090;BME280;62448;-26.094;27.994;2022-09-30T12:22:27;84808.22;;;17.59;13.42
74090;BME280;62448;-26.094;27.994;2022-09-30T12:24:48;84806.70;;;17.25;13.17
74090;BME280;62448;-26.094;27.994;2022-09-30T12:27:17;84804.50;;;17.97;12.84
74090;BME280;62448;-26.094;27.994;2022-09-30T12:29:41;84804.98;;;18.10;12.74
74090;BME280;62448;-26.094;27.994;2022-09-30T12:32:30;84800.56;;;16.26;13.08
74090;BME280;62448;-26.094;27.994;2022-09-30T12:34:41;84801.40;;;15.87;12.28
74090;BME280;62448;-26.094;27.994;2022-09-30T12:37:04;84800.75;;;14.83;12.44
74090;BME280;62448;-26.094;27.994;2022-09-30T12:39:34;84800.92;;;15.01;12.27
74090;BME280;62448;-26.094;27.994;2022-09-30T12:41:54;84800.22;;;13.97;12.51
74090;BME280;62448;-26.094;27.994;2022-09-30T12:46:08;84795.25;;;13.98;13.07
74090;BME280;62448;-26.094;27.994;2022-09-30T12:48:21;84794.80;;;13.89;13.12
74090;BME280;62448;-26.094;27.994;2022-09-30T12:50:48;84799.09;;;14.35;13.17
74090;BME280;62448;-26.094;27.994;2022-09-30T12:53:17;84800.99;;;13.51;13.99
74090;BME280;62448;-26.094;27.994;2022-09-30T12:55:38;84801.99;;;13.44;14.16
74090;BME280;62448;-26.094;27.994;2022-09-30T12:58:01;84807.63;;;13.16;14.22
74090;BME280;62448;-26.094;27.994;2022-09-30T13:00:29;84803.17;;;12.86;14.49
74090;BME280;62448;-26.094;27.994;2022-09-30T13:02:56;84799.47;;;13.24;14.31
74090;BME280;62448;-26.094;27.994;2022-09-30T13:05:53;84797.01;;;12.79;15.88
74090;BME280;62448;-26.094;27.994;2022-09-30T13:08:08;84801.29;;;13.22;19.48
74090;BME280;62448;-26.094;27.994;2022-09-30T13:10:45;84802.39;;;13.48;18.50
74090;BME280;62448;-26.094;27.994;2022-09-30T13:12:42;84808.04;;;13.55;16.67
74090;BME280;62448;-26.094;27.994;2022-09-30T13:16:04;84805.16;;;13.33;15.85
74090;BME280;62448;-26.094;27.994;2022-09-30T13:17:26;84806.83;;;12.38;15.45
74090;BME280;62448;-26.094;27.994;2022-09-30T13:19:52;84804.36;;;12.39;15.07
74090;BME280;62448;-26.094;27.994;2022-09-30T13:22:42;84802.55;;;12.59;14.97
74090;BME280;62448;-26.094;27.994;2022-09-30T13:25:15;84802.89;;;12.09;14.86